Dalhart, Texas
Current Conditions -  °F | °C
As of 10:53 AM on Thursday 30 Oct 2014 (Local Time) from KDHT Reporting Station
Clear Clear  
Wind Chill: 17°   Ceiling: Unl
Heat Index: 17°   Visibility: 10mi
Dew Point: -4°   Wind: 18mph
Humidity: 23%   Direction: 30°NNE
Pressure: 30.32"   Gusts: NA
Location:  36.06°N, 102.52°W
Report Text: KDHT 301553Z AUTO 03016KT 10SM CLR 17/M04 A3032 RMK AO2 SLP243 T01671044
Loading
Personal Weather Stations






























Interactive Weather Map
Tropical Storm Tracking
New forecast layout! Learn more

10-Day Weather Forecast

Advertisements
Track Severe Weather on mobile